createdAt,value
2023-10-14T00:02:23.036Z,99416.47
2023-10-14T00:04:56.742Z,99421.34
2023-10-14T00:07:26.741Z,99426.50
2023-10-14T00:09:58.211Z,99434.78
2023-10-14T00:12:29.708Z,99438.50
2023-10-14T00:15:06.126Z,99429.13
2023-10-14T00:17:43.341Z,99420.66
2023-10-14T00:20:21.901Z,99427.50
2023-10-14T00:22:49.238Z,99416.09
2023-10-14T00:25:36.065Z,99397.00
2023-10-14T00:28:14.108Z,99419.13
2023-10-14T00:31:00.530Z,99391.34
2023-10-14T00:33:29.676Z,99402.59
2023-10-14T00:36:00.684Z,99424.28
2023-10-14T00:38:47.149Z,99414.47
2023-10-14T00:41:37.589Z,99433.06
2023-10-14T00:44:09.619Z,99404.00
2023-10-14T00:46:56.799Z,99424.50
2023-10-14T00:49:43.943Z,99430.19
2023-10-14T00:52:31.423Z,99406.13
2023-10-14T00:54:58.416Z,99406.75
2023-10-14T00:57:55.478Z,99411.19
2023-10-14T01:00:39.896Z,99410.09
2023-10-14T01:03:16.042Z,99411.69
2023-10-14T01:05:46.643Z,99402.69
2023-10-14T01:08:13.387Z,99399.66
2023-10-14T01:10:40.483Z,99416.09
2023-10-14T01:13:15.087Z,99418.66
2023-10-14T01:15:47.180Z,99411.19
2023-10-14T01:18:15.478Z,99416.81
2023-10-14T01:20:43.680Z,99407.69
2023-10-14T01:23:15.266Z,99404.72
2023-10-14T01:25:48.332Z,99397.00
2023-10-14T01:28:21.743Z,99392.41
2023-10-14T01:31:32.355Z,99389.09
2023-10-14T01:34:01.593Z,99390.72
2023-10-14T01:36:33.212Z,99381.44
2023-10-14T01:39:10.319Z,99380.78
2023-10-14T01:41:36.792Z,99380.38
2023-10-14T01:44:10.926Z,99387.00
2023-10-14T01:46:40.837Z,99375.94
2023-10-14T01:49:18.237Z,99374.72
2023-10-14T01:51:47.704Z,99377.19
2023-10-14T01:54:14.237Z,99363.03
2023-10-14T01:56:41.236Z,99373.91
2023-10-14T01:59:08.855Z,99368.06
2023-10-14T02:01:37.607Z,99378.06
2023-10-14T02:04:05.018Z,99363.16
2023-10-14T02:06:32.013Z,99384.22
2023-10-14T02:09:02.202Z,99368.66
2023-10-14T02:11:34.361Z,99372.41
2023-10-14T02:14:08.213Z,99369.88
2023-10-14T02:16:42.753Z,99378.56
2023-10-14T02:19:37.455Z,99376.63
2023-10-14T02:22:09.076Z,99379.00
2023-10-14T02:24:35.496Z,99374.56
2023-10-14T02:27:11.659Z,99408.06
2023-10-14T02:29:42.996Z,99366.09
2023-10-14T02:32:12.794Z,99364.19
2023-10-14T02:34:46.302Z,99373.25
2023-10-14T02:37:16.399Z,99374.94
2023-10-14T02:39:49.117Z,99375.22
2023-10-14T02:42:16.398Z,99379.50
2023-10-14T02:44:48.368Z,99382.84
2023-10-14T02:47:15.510Z,99381.53
2023-10-14T02:49:42.918Z,99376.78
2023-10-14T02:52:14.184Z,99388.91
2023-10-14T02:54:45.879Z,99382.06
2023-10-14T02:57:14.303Z,99393.06
2023-10-14T02:59:43.954Z,99412.72
2023-10-14T03:02:10.861Z,99399.19
2023-10-14T03:04:49.456Z,99401.00
2023-10-14T03:07:43.376Z,99398.47
2023-10-14T03:10:25.188Z,99407.94
2023-10-14T03:12:52.047Z,99402.19
2023-10-14T03:15:22.141Z,99414.53
2023-10-14T03:17:57.730Z,99434.09
2023-10-14T03:20:28.419Z,99528.50
2023-10-14T03:22:55.577Z,99563.69
2023-10-14T03:25:24.328Z,99572.25
2023-10-14T03:28:00.068Z,99588.31
2023-10-14T03:30:28.105Z,99613.22
2023-10-14T03:32:56.034Z,99631.63
2023-10-14T03:35:24.660Z,99651.16
2023-10-14T03:37:55.141Z,99660.88
2023-10-14T03:40:52.412Z,99670.00
2023-10-14T03:43:20.777Z,99667.59
2023-10-14T03:46:06.112Z,99679.41
2023-10-14T03:48:38.075Z,99691.47
2023-10-14T03:51:04.534Z,99701.31
2023-10-14T03:53:32.522Z,99704.97
2023-10-14T03:56:00.916Z,99714.81
2023-10-14T03:58:33.096Z,99726.97
2023-10-14T04:01:05.626Z,99729.44
2023-10-14T04:03:41.609Z,99749.50
2023-10-14T04:06:15.357Z,99755.13
2023-10-14T04:08:48.894Z,99759.38
2023-10-14T04:11:36.681Z,99767.75
2023-10-14T04:14:04.086Z,99775.38
2023-10-14T04:16:47.169Z,99780.16
2023-10-14T04:19:28.300Z,99783.00
2023-10-14T04:22:15.971Z,99790.66
2023-10-14T04:24:42.602Z,99790.66
2023-10-14T04:27:18.625Z,99794.22
2023-10-14T04:29:59.546Z,99792.31
2023-10-14T04:32:28.617Z,99811.16
2023-10-14T04:34:57.544Z,99825.28
2023-10-14T04:37:28.130Z,99827.72
2023-10-14T04:39:59.966Z,99839.81
2023-10-14T04:42:36.878Z,99851.88
2023-10-14T04:45:05.227Z,99863.38
2023-10-14T04:47:38.122Z,99868.19
2023-10-14T04:50:11.791Z,99879.84
2023-10-14T04:52:39.689Z,99881.53
2023-10-14T04:55:24.573Z,99888.09
2023-10-14T04:58:09.729Z,99888.50
2023-10-14T05:00:43.756Z,99895.78
2023-10-14T05:03:14.654Z,99903.75
2023-10-14T05:05:47.414Z,99942.75
2023-10-14T05:08:17.441Z,99955.88
2023-10-14T05:10:45.300Z,99971.84
2023-10-14T05:13:13.535Z,99981.88
2023-10-14T05:15:44.431Z,99988.66
2023-10-14T05:18:18.042Z,100001.00
2023-10-14T05:20:54.548Z,100008.19
2023-10-14T05:23:25.312Z,100024.56
2023-10-14T05:25:57.831Z,100019.78
2023-10-14T05:28:32.456Z,100025.38
2023-10-14T05:31:01.662Z,100037.72
2023-10-14T05:33:32.325Z,100044.94
2023-10-14T05:35:58.744Z,100058.91
2023-10-14T05:38:25.201Z,100053.69
2023-10-14T05:40:57.086Z,100061.72
2023-10-14T05:43:24.659Z,100062.09
2023-10-14T05:45:54.747Z,100062.97
2023-10-14T05:48:31.709Z,100066.13
2023-10-14T05:50:58.424Z,100065.69
2023-10-14T05:53:27.969Z,100065.34
2023-10-14T05:56:10.766Z,100083.31
2023-10-14T05:58:38.981Z,100075.34
2023-10-14T06:01:12.897Z,100077.72
2023-10-14T06:03:40.033Z,100089.34
2023-10-14T06:06:10.955Z,100096.50
2023-10-14T06:08:38.321Z,100106.50
2023-10-14T06:11:06.569Z,100094.53
2023-10-14T06:13:34.274Z,100105.69
2023-10-14T06:16:01.902Z,100116.88
2023-10-14T06:18:30.855Z,100117.69
2023-10-14T06:20:58.957Z,100123.31
2023-10-14T06:23:28.269Z,100135.28
2023-10-14T06:25:55.834Z,100138.47
2023-10-14T06:28:23.000Z,100153.66
2023-10-14T06:30:49.827Z,100162.44
2023-10-14T06:33:16.998Z,100171.22
2023-10-14T06:35:43.681Z,100164.84
2023-10-14T06:38:19.038Z,100170.84
2023-10-14T06:40:53.739Z,100172.06
2023-10-14T06:43:21.647Z,100176.84
2023-10-14T06:45:52.371Z,100174.06
2023-10-14T06:48:19.195Z,100186.00
2023-10-14T06:50:48.312Z,100186.41
2023-10-14T06:53:16.756Z,100194.41
2023-10-14T06:55:43.531Z,100197.59
2023-10-14T06:58:20.018Z,100187.19
2023-10-14T07:00:46.765Z,100213.59
2023-10-14T07:03:15.944Z,100212.78
2023-10-14T07:05:58.014Z,100209.19
2023-10-14T07:08:26.241Z,100216.81
2023-10-14T07:10:53.741Z,100229.56
2023-10-14T07:13:22.554Z,100238.34
2023-10-14T07:15:50.838Z,100251.16
2023-10-14T07:18:29.814Z,100242.28
2023-10-14T07:21:04.157Z,100256.75
2023-10-14T07:23:35.423Z,100257.97
2023-10-14T07:26:13.060Z,100265.13
2023-10-14T07:28:44.699Z,100270.34
2023-10-14T07:31:12.948Z,100283.91
2023-10-14T07:33:40.639Z,100279.91
2023-10-14T07:36:07.900Z,100277.88
2023-10-14T07:38:36.326Z,100285.50
2023-10-14T07:41:04.163Z,100290.25
2023-10-14T07:43:30.849Z,100293.44
2023-10-14T07:45:59.731Z,100300.25
2023-10-14T07:48:27.595Z,100305.03
2023-10-14T07:50:57.354Z,100304.63
2023-10-14T07:53:24.391Z,100312.63
2023-10-14T07:55:52.242Z,100310.59
2023-10-14T07:58:30.194Z,100324.59
2023-10-14T08:00:57.228Z,100320.22
2023-10-14T08:03:28.435Z,100327.78
2023-10-14T08:06:00.583Z,100329.41
2023-10-14T08:08:32.310Z,100337.47
2023-10-14T08:11:00.175Z,100342.75
2023-10-14T08:13:27.507Z,100346.38
2023-10-14T08:15:56.917Z,100346.41
2023-10-14T08:18:24.927Z,100348.84
2023-10-14T08:20:55.601Z,100350.06
2023-10-14T08:23:27.247Z,100356.84
2023-10-14T08:25:58.082Z,100353.25
2023-10-14T08:28:25.827Z,100352.81
2023-10-14T08:30:52.612Z,100362.41
2023-10-14T08:33:21.521Z,100364.03
2023-10-14T08:35:49.522Z,100363.97
2023-10-14T08:38:20.511Z,100364.03
2023-10-14T08:40:50.656Z,100372.75
2023-10-14T08:43:26.992Z,100371.09
2023-10-14T08:45:57.583Z,100386.28
2023-10-14T08:48:27.939Z,100383.88
2023-10-14T08:50:57.696Z,100386.69
2023-10-14T08:53:25.900Z,100391.91
2023-10-14T08:55:53.525Z,100407.94
2023-10-14T08:58:24.172Z,100391.97
2023-10-14T09:00:55.799Z,100399.97
2023-10-14T09:03:25.612Z,100400.84
2023-10-14T09:05:52.427Z,100403.25
2023-10-14T09:08:23.058Z,100408.88
2023-10-14T09:10:53.936Z,100406.09
2023-10-14T09:13:23.629Z,100410.50
2023-10-14T09:15:51.851Z,100406.53
2023-10-14T09:18:22.884Z,100414.91
2023-10-14T09:20:56.982Z,100424.09
2023-10-14T09:23:28.402Z,100424.09
2023-10-14T09:25:59.558Z,100429.72
2023-10-14T09:28:34.133Z,100430.47
2023-10-14T09:31:03.438Z,100431.69
2023-10-14T09:33:35.330Z,100427.31
2023-10-14T09:36:19.779Z,100426.94
2023-10-14T09:38:55.868Z,100432.19
2023-10-14T09:41:23.661Z,100429.34
2023-10-14T09:43:51.291Z,100445.84
2023-10-14T09:46:21.451Z,100435.44
2023-10-14T09:48:49.326Z,100450.25
2023-10-14T09:51:17.817Z,100446.66
2023-10-14T09:53:54.327Z,100452.97
2023-10-14T09:56:32.787Z,100448.56
2023-10-14T09:59:04.801Z,100442.97
2023-10-14T10:01:31.823Z,100455.47
2023-10-14T10:04:04.597Z,100459.88
2023-10-14T10:07:05.360Z,100479.47
2023-10-14T10:09:46.132Z,100473.00
2023-10-14T10:12:13.474Z,100478.28
2023-10-14T10:14:43.873Z,100474.69
2023-10-14T10:17:15.979Z,100484.63
2023-10-14T10:20:11.635Z,100474.59
2023-10-14T10:22:53.165Z,100479.06
2023-10-14T10:25:22.976Z,100480.28
2023-10-14T10:27:56.285Z,100483.50
2023-10-14T10:30:24.017Z,100471.09
2023-10-14T10:32:51.834Z,100477.50
2023-10-14T10:35:21.715Z,100472.69
2023-10-14T10:37:53.646Z,100472.28
2023-10-14T10:40:27.068Z,100471.81
2023-10-14T10:42:57.610Z,100471.41
2023-10-14T10:45:32.594Z,100477.34
2023-10-14T10:48:06.798Z,100472.78
2023-10-14T10:50:38.547Z,100479.06
2023-10-14T10:53:08.273Z,100481.84
2023-10-14T10:55:37.471Z,100472.75
2023-10-14T10:58:05.955Z,100476.47
2023-10-14T11:00:33.993Z,100472.59
2023-10-14T11:03:03.816Z,100463.75
2023-10-14T11:05:34.328Z,100475.09
2023-10-14T11:08:05.158Z,100471.59
2023-10-14T11:10:35.227Z,100460.47
2023-10-14T11:13:02.301Z,100471.03
2023-10-14T11:15:33.084Z,100476.66
2023-10-14T11:18:01.839Z,100471.88
2023-10-14T11:20:37.584Z,100490.31
2023-10-14T11:23:06.310Z,100496.34
2023-10-14T11:25:37.773Z,100488.31
2023-10-14T11:28:06.835Z,100484.28
2023-10-14T11:30:33.745Z,100476.69
2023-10-14T11:33:00.357Z,100477.78
2023-10-14T11:35:31.152Z,100474.38
2023-10-14T11:38:01.904Z,100473.53
2023-10-14T11:40:38.845Z,100472.38
2023-10-14T11:43:12.344Z,100489.06
2023-10-14T11:45:46.206Z,100489.03
2023-10-14T11:48:34.545Z,100493.22
2023-10-14T11:51:03.528Z,100493.34
2023-10-14T11:53:33.349Z,100493.81
2023-10-14T11:56:04.287Z,100496.38
2023-10-14T11:58:33.571Z,100499.31
2023-10-14T12:01:00.569Z,100492.03
2023-10-14T12:03:28.188Z,100493.03
2023-10-14T12:06:00.557Z,100506.75
2023-10-14T12:08:28.586Z,100505.22
2023-10-14T12:10:57.870Z,100509.63
2023-10-14T12:13:37.688Z,100513.59
2023-10-14T12:16:12.470Z,100510.28
2023-10-14T12:18:39.103Z,100507.91
2023-10-14T12:21:05.719Z,100501.78
2023-10-14T12:23:35.063Z,100496.09
2023-10-14T12:26:02.969Z,100501.31
2023-10-14T12:28:34.661Z,100506.13
2023-10-14T12:31:08.041Z,100506.19
2023-10-14T12:33:39.876Z,100510.38
2023-10-14T12:36:10.328Z,100501.97
2023-10-14T12:38:39.516Z,100504.72
2023-10-14T12:41:09.425Z,100511.91
2023-10-14T12:43:43.005Z,100506.78
2023-10-14T12:46:21.082Z,100501.81
2023-10-14T12:48:51.953Z,100512.47
2023-10-14T12:51:26.599Z,100510.47
2023-10-14T12:53:58.812Z,100519.09
2023-10-14T12:56:27.692Z,100519.94
2023-10-14T12:58:58.054Z,100529.16
2023-10-14T13:01:24.830Z,100519.94
2023-10-14T13:03:57.852Z,100526.25
2023-10-14T13:06:28.145Z,100527.66
2023-10-14T13:08:59.847Z,100536.88
2023-10-14T13:11:27.414Z,100534.66
2023-10-14T13:13:53.948Z,100538.75
2023-10-14T13:16:21.609Z,100546.00
2023-10-14T13:18:49.306Z,100547.22
2023-10-14T13:21:18.149Z,100549.22
2023-10-14T13:23:45.421Z,100544.41
2023-10-14T13:26:12.181Z,100544.03
2023-10-14T13:28:38.686Z,100550.00
2023-10-14T13:31:05.892Z,100546.00
2023-10-14T13:33:32.493Z,100550.44
2023-10-14T13:35:58.931Z,100545.06
2023-10-14T13:38:25.513Z,100539.38
2023-10-14T13:40:52.131Z,100541.63
2023-10-14T13:43:18.772Z,100544.59
2023-10-14T13:45:45.499Z,100538.41
2023-10-14T13:48:15.108Z,100533.97
2023-10-14T13:50:42.789Z,100542.50
2023-10-14T13:53:10.833Z,100546.00
2023-10-14T13:55:40.905Z,100538.16
2023-10-14T13:58:07.950Z,100537.63
2023-10-14T14:00:37.372Z,100523.38
2023-10-14T14:03:06.443Z,100537.63
2023-10-14T14:05:34.401Z,100531.44
2023-10-14T14:08:01.762Z,100535.91
2023-10-14T14:10:28.233Z,100534.94
2023-10-14T14:12:55.360Z,100541.78
2023-10-14T14:15:24.096Z,100550.97
2023-10-14T14:17:50.640Z,100570.91
2023-10-14T14:20:17.569Z,100574.94
2023-10-14T14:22:45.560Z,100566.78
2023-10-14T14:25:15.214Z,100577.09
2023-10-14T14:27:46.028Z,100572.00
2023-10-14T14:30:14.198Z,100551.75
2023-10-14T14:32:42.663Z,100561.59
2023-10-14T14:35:10.369Z,100572.47
2023-10-14T14:37:38.562Z,100579.16
2023-10-14T14:40:15.537Z,100594.91
2023-10-14T14:42:42.481Z,100594.53
2023-10-14T14:45:13.706Z,100594.91
2023-10-14T14:47:41.028Z,100602.94
2023-10-14T14:50:09.262Z,100612.59
2023-10-14T14:52:36.796Z,100612.16
2023-10-14T14:55:05.381Z,100624.59
2023-10-14T14:57:39.658Z,100601.31
2023-10-14T15:00:15.264Z,100620.19
2023-10-14T15:02:44.048Z,100608.06
2023-10-14T15:05:16.024Z,100614.91
2023-10-14T15:07:42.980Z,100608.91
2023-10-14T15:10:11.151Z,100627.72
2023-10-14T15:12:38.038Z,100622.50
2023-10-14T15:15:06.647Z,100628.50
2023-10-14T15:17:33.474Z,100627.28
2023-10-14T15:20:00.125Z,100632.44
2023-10-14T15:22:26.643Z,100640.44
2023-10-14T15:24:53.105Z,100645.22
2023-10-14T15:27:21.945Z,100645.16
2023-10-14T15:29:49.816Z,100648.38
2023-10-14T15:32:18.194Z,100648.41
2023-10-14T15:34:50.971Z,100650.03
2023-10-14T15:37:17.538Z,100660.34
2023-10-14T15:39:44.130Z,100677.38
2023-10-14T15:42:10.585Z,100662.91
2023-10-14T15:44:37.348Z,100668.09
2023-10-14T15:47:06.201Z,100664.91
2023-10-14T15:49:37.514Z,100671.66
2023-10-14T15:52:04.810Z,100675.63
2023-10-14T15:54:31.343Z,100678.38
2023-10-14T15:56:57.736Z,100684.41
2023-10-14T15:59:24.386Z,100684.72
2023-10-14T16:01:51.124Z,100688.75
2023-10-14T16:04:17.779Z,100689.13
2023-10-14T16:06:44.497Z,100696.94
2023-10-14T16:09:11.060Z,100699.06
2023-10-14T16:11:37.701Z,100702.97
2023-10-14T16:14:04.716Z,100707.81
2023-10-14T16:16:32.018Z,100708.56
2023-10-14T16:18:58.649Z,100715.34
2023-10-14T16:21:25.303Z,100711.66
2023-10-14T16:23:52.065Z,100727.25
2023-10-14T16:26:19.639Z,100734.81
2023-10-14T16:28:49.661Z,100738.78
2023-10-14T16:31:18.144Z,100749.75
2023-10-14T16:33:46.210Z,100747.09
2023-10-14T16:36:17.209Z,100754.25
2023-10-14T16:38:44.769Z,100749.88
2023-10-14T16:41:11.261Z,100748.06
2023-10-14T16:43:37.793Z,100754.25
2023-10-14T16:46:09.198Z,100754.63
2023-10-14T16:48:35.738Z,100764.00
2023-10-14T16:51:06.046Z,100780.22
2023-10-14T16:53:32.457Z,100785.34
2023-10-14T16:55:58.946Z,100785.63
2023-10-14T16:58:25.882Z,100783.25
2023-10-14T17:00:55.762Z,100782.91
2023-10-14T17:03:26.313Z,100767.41
2023-10-14T17:05:55.973Z,100775.88
2023-10-14T17:08:24.188Z,100776.88
2023-10-14T17:10:51.502Z,100774.28
2023-10-14T17:13:18.193Z,100778.69
2023-10-14T17:15:45.182Z,100787.38
2023-10-14T17:18:12.510Z,100786.38
2023-10-14T17:20:42.603Z,100783.28
2023-10-14T17:23:14.442Z,100788.75
2023-10-14T17:25:41.344Z,100793.81
2023-10-14T17:28:12.833Z,100804.97
2023-10-14T17:30:41.382Z,100811.00
2023-10-14T17:33:12.795Z,100813.72
2023-10-14T17:35:42.592Z,100816.09
2023-10-14T17:38:09.264Z,100817.88
2023-10-14T17:40:42.023Z,100822.03
2023-10-14T17:43:11.718Z,100815.09
2023-10-14T17:45:40.413Z,100824.31
2023-10-14T17:48:07.771Z,100825.06
2023-10-14T17:50:36.145Z,100826.06
2023-10-14T17:53:10.139Z,100829.28
2023-10-14T17:55:37.978Z,100829.59
2023-10-14T17:58:05.203Z,100823.97
2023-10-14T18:00:32.416Z,100830.66
2023-10-14T18:03:06.175Z,100835.63
2023-10-14T18:05:33.075Z,100833.44
2023-10-14T18:07:59.721Z,100833.53
2023-10-14T18:10:29.643Z,100837.56
2023-10-14T18:13:00.232Z,100844.31
2023-10-14T18:15:30.396Z,100844.75
2023-10-14T18:17:57.076Z,100841.91
2023-10-14T18:20:27.182Z,100852.44
2023-10-14T18:22:55.754Z,100845.25
2023-10-14T18:25:25.547Z,100846.34
2023-10-14T18:27:52.948Z,100846.22
2023-10-14T18:30:22.032Z,100852.94
2023-10-14T18:32:56.293Z,100856.09
2023-10-14T18:35:28.496Z,100852.47
2023-10-14T18:37:56.785Z,100849.34
2023-10-14T18:40:28.580Z,100850.56
2023-10-14T18:42:57.043Z,100864.16
2023-10-14T18:45:24.371Z,100858.22
2023-10-14T18:47:55.290Z,100868.56
2023-10-14T18:50:30.311Z,100868.06
2023-10-14T18:52:59.642Z,100867.44
2023-10-14T18:55:30.135Z,100868.94
2023-10-14T18:58:05.936Z,100870.91
2023-10-14T19:00:45.755Z,100862.84
2023-10-14T19:03:13.154Z,100872.16
2023-10-14T19:05:39.831Z,100867.31
2023-10-14T19:08:08.686Z,100870.09
2023-10-14T19:10:40.500Z,100871.84
2023-10-14T19:13:08.636Z,100868.06
2023-10-14T19:15:37.243Z,100870.41
2023-10-14T19:18:05.826Z,100870.53
2023-10-14T19:20:34.961Z,100875.78
2023-10-14T19:23:07.601Z,100879.66
2023-10-14T19:25:38.188Z,100875.03
2023-10-14T19:28:10.258Z,100878.19
2023-10-14T19:30:38.616Z,100882.91
2023-10-14T19:33:05.269Z,100875.09
2023-10-14T19:35:32.557Z,100882.97
2023-10-14T19:37:59.306Z,100884.53
2023-10-14T19:40:26.038Z,100883.94
2023-10-14T19:42:55.060Z,100894.19
2023-10-14T19:45:22.314Z,100896.91
2023-10-14T19:47:49.060Z,100894.47
2023-10-14T19:50:17.633Z,100899.25
2023-10-14T19:52:48.023Z,100895.22
2023-10-14T19:55:25.634Z,100905.03
2023-10-14T19:58:02.749Z,100902.25
2023-10-14T20:00:32.017Z,100910.81
2023-10-14T20:03:03.253Z,100910.75
2023-10-14T20:05:40.777Z,100917.16
2023-10-14T20:08:12.694Z,100921.91
2023-10-14T20:10:42.364Z,100926.81
2023-10-14T20:13:11.332Z,100944.75
2023-10-14T20:15:38.569Z,100943.34
2023-10-14T20:18:17.542Z,100947.97
2023-10-14T20:20:44.491Z,100954.28
2023-10-14T20:23:13.060Z,100959.50
2023-10-14T20:25:43.803Z,100957.88
2023-10-14T20:28:17.087Z,100955.09
2023-10-14T20:30:45.228Z,100953.28
2023-10-14T20:33:12.073Z,100964.09
2023-10-14T20:35:42.364Z,100958.97
2023-10-14T20:38:12.500Z,100970.75
2023-10-14T20:40:44.608Z,100969.59
2023-10-14T20:43:11.984Z,100975.25
2023-10-14T20:45:41.029Z,100979.84
2023-10-14T20:48:08.158Z,100971.91
2023-10-14T20:50:36.456Z,100968.72
2023-10-14T20:53:06.573Z,100959.63
2023-10-14T20:55:34.461Z,100960.72
2023-10-14T20:58:03.032Z,100967.31
2023-10-14T21:00:38.049Z,100975.47
2023-10-14T21:03:10.197Z,100973.44
2023-10-14T21:05:39.749Z,100971.19
2023-10-14T21:08:19.812Z,100974.88
2023-10-14T21:10:48.719Z,100984.22
2023-10-14T21:13:19.932Z,100980.06
2023-10-14T21:15:50.134Z,100975.22
2023-10-14T21:18:19.638Z,100983.41
2023-10-14T21:20:50.091Z,100987.47
2023-10-14T21:23:18.174Z,100978.00
2023-10-14T21:25:45.547Z,100981.34
2023-10-14T21:28:15.562Z,100985.19
2023-10-14T21:30:42.614Z,100987.97
2023-10-14T21:33:09.408Z,100978.31
2023-10-14T21:35:37.392Z,100982.69
2023-10-14T21:38:05.012Z,100977.28
2023-10-14T21:40:32.293Z,100986.53
2023-10-14T21:42:59.896Z,100984.94
2023-10-14T21:45:35.641Z,100984.66
2023-10-14T21:48:03.953Z,100977.25
2023-10-14T21:50:32.454Z,100979.38
2023-10-14T21:53:01.815Z,100972.44
2023-10-14T21:55:28.720Z,100968.56
2023-10-14T21:58:00.089Z,100967.56
2023-10-14T22:00:37.775Z,100970.00
2023-10-14T22:03:08.421Z,100966.53
2023-10-14T22:05:37.280Z,100967.91
2023-10-14T22:08:06.243Z,100971.97
2023-10-14T22:10:34.098Z,100968.84
2023-10-14T22:13:00.711Z,100971.84
2023-10-14T22:15:30.124Z,100963.75
2023-10-14T22:18:01.119Z,100974.03
2023-10-14T22:20:33.711Z,100976.38
2023-10-14T22:23:02.163Z,100974.84
2023-10-14T22:25:35.584Z,100972.75
2023-10-14T22:28:13.048Z,100965.84
2023-10-14T22:30:40.496Z,100959.47
2023-10-14T22:33:07.833Z,100966.75
2023-10-14T22:35:38.183Z,100961.88
2023-10-14T22:38:06.660Z,100964.06
2023-10-14T22:40:34.612Z,100963.25
2023-10-14T22:43:03.022Z,100968.00
2023-10-14T22:45:29.593Z,100970.81
2023-10-14T22:47:59.937Z,100966.97
2023-10-14T22:50:26.706Z,100970.31
2023-10-14T22:52:56.568Z,100967.00
2023-10-14T22:55:26.354Z,100972.06
2023-10-14T22:57:56.770Z,100969.50
2023-10-14T23:00:26.670Z,100969.38
2023-10-14T23:02:56.684Z,100966.97
2023-10-14T23:05:31.651Z,100966.00
2023-10-14T23:08:01.499Z,100961.13
2023-10-14T23:10:32.252Z,100955.22
2023-10-14T23:12:59.942Z,100970.47
2023-10-14T23:15:30.454Z,100957.19
2023-10-14T23:17:59.428Z,100956.38
2023-10-14T23:20:28.557Z,100959.75
2023-10-14T23:23:00.831Z,100958.59
2023-10-14T23:25:28.553Z,100951.53
2023-10-14T23:27:56.897Z,100959.16
2023-10-14T23:30:24.513Z,100958.47
2023-10-14T23:32:56.937Z,100963.66
2023-10-14T23:35:24.623Z,100968.50
2023-10-14T23:37:59.195Z,100959.84
2023-10-14T23:40:27.324Z,100960.13
2023-10-14T23:43:03.484Z,100960.81
2023-10-14T23:45:33.381Z,100961.81
2023-10-14T23:48:02.821Z,100963.28
2023-10-14T23:50:29.675Z,100965.72
2023-10-14T23:52:56.233Z,100973.97
2023-10-14T23:55:25.527Z,100965.22
2023-10-14T23:57:53.260Z,100964.50
